Brent, United Kingdom
Current Conditions -  °F | °C
As of 7:50 AM on Friday 28 Nov 2014 (Local Time) from EGWU Reporting Station
Broken Clouds Broken Clouds  
Wind Chill: 52°   Ceiling: 1400
Heat Index: 52°   Visibility: 6mi
Dew Point: 48°   Wind: 12mph
Humidity: 88%   Direction: 90°E
Pressure: 29.59"   Gusts: NA
Location:  51.55°N, 0.3°W
Report Text: EGWU 280750Z 09010KT 9999 FEW008 BKN014 11/09 Q1002 GRN TEMPO BKN015 WHT
Loading
Personal Weather Stations






























Interactive Weather Map New forecast layout! Learn more

10-Day Weather Forecast

Advertisements
Track Severe Weather on mobile